ITY710 LIRF-LGKF
Flight info
| Callsign | ITY710 |
|---|---|
| Flight time | N/A |
| Altitude | 19000 |
| Route | PEPIX L50 UNIXO/N0439F370 DCT SOR DCT POLIT DCT ALIXI DCT GEMVI DCT TOMGI/N0354F190 M601 LASKO |
| Aircraft | A320/M-SDE3FGHIRWY/LB1 |
Departure
| Time | N/A |
|---|---|
| Airport | Rome–Fiumicino Leonardo da Vinci International Airport (LIRF) |
Arrival
| Time | 2026-04-18 10:35 |
|---|---|
| Airport | Kefallinia Airport (LGKF) |
| Time | Latitude | Longitude | Altitude | Speed | Heading |
|---|---|---|---|---|---|
| 2026-04-18 09:51 | 39.85189 | 15.97458 | 35073 ft | 454 kts | 105° |
| 2026-04-18 09:51 | 39.83135 | 16.05236 | 35081 ft | 454 kts | 105° |
| 2026-04-18 09:52 | 39.81074 | 16.12997 | 35075 ft | 454 kts | 105° |
| 2026-04-18 09:52 | 39.79005 | 16.20755 | 35068 ft | 454 kts | 106° |
| 2026-04-18 09:53 | 39.76940 | 16.28464 | 35069 ft | 454 kts | 105° |
| 2026-04-18 09:53 | 39.74862 | 16.36216 | 35081 ft | 454 kts | 106° |
| 2026-04-18 09:54 | 39.72777 | 16.43966 | 35081 ft | 455 kts | 106° |
| 2026-04-18 09:54 | 39.70686 | 16.51726 | 35068 ft | 455 kts | 106° |
| 2026-04-18 09:55 | 39.68586 | 16.59492 | 35066 ft | 456 kts | 106° |
| 2026-04-18 09:55 | 39.66470 | 16.67268 | 35064 ft | 456 kts | 106° |
| 2026-04-18 09:56 | 39.64352 | 16.75044 | 35079 ft | 457 kts | 106° |
| 2026-04-18 09:56 | 39.62235 | 16.82824 | 35065 ft | 458 kts | 106° |
| 2026-04-18 09:57 | 39.60122 | 16.90554 | 35062 ft | 458 kts | 106° |
| 2026-04-18 09:57 | 39.57983 | 16.98329 | 35054 ft | 458 kts | 106° |
| 2026-04-18 09:58 | 39.55835 | 17.06113 | 35066 ft | 458 kts | 107° |
| 2026-04-18 09:58 | 39.53681 | 17.13910 | 35051 ft | 459 kts | 107° |
| 2026-04-18 09:59 | 39.51517 | 17.21705 | 35030 ft | 460 kts | 107° |
| 2026-04-18 10:00 | 39.48264 | 17.33401 | 35019 ft | 460 kts | 107° |
| 2026-04-18 10:00 | 39.45864 | 17.41097 | 35021 ft | 464 kts | 117° |
| 2026-04-18 10:01 | 39.41921 | 17.47717 | 35009 ft | 468 kts | 136° |
| 2026-04-18 10:01 | 39.36949 | 17.53168 | 35007 ft | 469 kts | 139° |
| 2026-04-18 10:02 | 39.31917 | 17.58551 | 35008 ft | 470 kts | 140° |
| 2026-04-18 10:02 | 39.26879 | 17.63923 | 35000 ft | 470 kts | 140° |
| 2026-04-18 10:03 | 39.21834 | 17.69302 | 35004 ft | 470 kts | 140° |
| 2026-04-18 10:03 | 39.16788 | 17.74669 | 35019 ft | 470 kts | 140° |
| 2026-04-18 10:04 | 39.11767 | 17.80001 | 35009 ft | 471 kts | 140° |
| 2026-04-18 10:04 | 39.06704 | 17.85371 | 34997 ft | 471 kts | 140° |
| 2026-04-18 10:05 | 39.01635 | 17.90737 | 34994 ft | 471 kts | 140° |
| 2026-04-18 10:05 | 38.96580 | 17.96086 | 34998 ft | 470 kts | 140° |
| 2026-04-18 10:06 | 38.91567 | 18.01379 | 34999 ft | 470 kts | 140° |
| 2026-04-18 10:06 | 38.86469 | 18.06746 | 34996 ft | 470 kts | 140° |
| 2026-04-18 10:07 | 38.81411 | 18.12068 | 34988 ft | 470 kts | 140° |
| 2026-04-18 10:07 | 38.76393 | 18.17343 | 34990 ft | 469 kts | 139° |
| 2026-04-18 10:08 | 38.72125 | 18.23595 | 34994 ft | 465 kts | 120° |
| 2026-04-18 10:08 | 38.69544 | 18.31113 | 34991 ft | 461 kts | 105° |
| 2026-04-18 10:09 | 38.67576 | 18.38922 | 34983 ft | 461 kts | 105° |
| 2026-04-18 10:09 | 38.65583 | 18.46720 | 34987 ft | 461 kts | 106° |
| 2026-04-18 10:10 | 38.63578 | 18.54519 | 34974 ft | 462 kts | 106° |
| 2026-04-18 10:10 | 38.61566 | 18.62333 | 34967 ft | 462 kts | 106° |
| 2026-04-18 10:11 | 38.59559 | 18.70161 | 34964 ft | 463 kts | 106° |
| 2026-04-18 10:11 | 38.57564 | 18.77927 | 34972 ft | 463 kts | 106° |
| 2026-04-18 10:12 | 38.55541 | 18.85749 | 34943 ft | 465 kts | 106° |
| 2026-04-18 10:12 | 38.53497 | 18.93605 | 34930 ft | 467 kts | 106° |
| 2026-04-18 10:13 | 38.51438 | 19.01513 | 34926 ft | 469 kts | 106° |
| 2026-04-18 10:13 | 38.50406 | 19.05464 | 34479 ft | 469 kts | 106° |
| 2026-04-18 10:13 | 38.49369 | 19.09428 | 32989 ft | 473 kts | 106° |
| 2026-04-18 10:13 | 38.48325 | 19.13409 | 31810 ft | 470 kts | 106° |
| 2026-04-18 10:14 | 38.47286 | 19.17344 | 30803 ft | 464 kts | 106° |
| 2026-04-18 10:14 | 38.46263 | 19.21208 | 29854 ft | 456 kts | 106° |
| 2026-04-18 10:14 | 38.45256 | 19.25006 | 28961 ft | 445 kts | 106° |
| 2026-04-18 10:14 | 38.44294 | 19.28632 | 28562 ft | 432 kts | 106° |
| 2026-04-18 10:15 | 38.43337 | 19.32251 | 28026 ft | 428 kts | 105° |
| 2026-04-18 10:15 | 38.42393 | 19.35836 | 27539 ft | 424 kts | 105° |
| 2026-04-18 10:15 | 38.41459 | 19.39377 | 27047 ft | 420 kts | 105° |
| 2026-04-18 10:15 | 38.40526 | 19.42896 | 26572 ft | 416 kts | 105° |
| 2026-04-18 10:16 | 38.39601 | 19.46372 | 26120 ft | 412 kts | 105° |
| 2026-04-18 10:16 | 38.38683 | 19.49815 | 25623 ft | 409 kts | 105° |
| 2026-04-18 10:16 | 38.37765 | 19.53249 | 25157 ft | 407 kts | 105° |
| 2026-04-18 10:16 | 38.36856 | 19.56649 | 24672 ft | 405 kts | 105° |
| 2026-04-18 10:17 | 38.35952 | 19.60039 | 24187 ft | 403 kts | 105° |
| 2026-04-18 10:17 | 38.35051 | 19.63412 | 23691 ft | 402 kts | 105° |
| 2026-04-18 10:17 | 38.34151 | 19.66776 | 23136 ft | 400 kts | 105° |
| 2026-04-18 10:17 | 38.33254 | 19.70113 | 22637 ft | 397 kts | 106° |
| 2026-04-18 10:18 | 38.32359 | 19.73426 | 22139 ft | 394 kts | 106° |
| 2026-04-18 10:18 | 38.31469 | 19.76720 | 21659 ft | 391 kts | 106° |
| 2026-04-18 10:18 | 38.30588 | 19.79986 | 21190 ft | 389 kts | 106° |
| 2026-04-18 10:18 | 38.29715 | 19.83231 | 20704 ft | 387 kts | 106° |
| 2026-04-18 10:19 | 38.28845 | 19.86462 | 20230 ft | 384 kts | 106° |
| 2026-04-18 10:19 | 38.27982 | 19.89637 | 19756 ft | 373 kts | 106° |
| 2026-04-18 10:19 | 38.27149 | 19.92672 | 19314 ft | 360 kts | 107° |
| 2026-04-18 10:19 | 38.25992 | 19.95446 | 18879 ft | 352 kts | 127° |
| 2026-04-18 10:20 | 38.24202 | 19.97517 | 18339 ft | 348 kts | 148° |
| 2026-04-18 10:20 | 38.21929 | 19.98624 | 17776 ft | 352 kts | 171° |
| 2026-04-18 10:20 | 38.19506 | 19.98639 | 17346 ft | 348 kts | 191° |
| 2026-04-18 10:20 | 38.17113 | 19.98165 | 16885 ft | 348 kts | 188° |
| 2026-04-18 10:21 | 38.14698 | 19.97872 | 16439 ft | 349 kts | 185° |
| 2026-04-18 10:21 | 38.12296 | 19.97727 | 15989 ft | 349 kts | 182° |
| 2026-04-18 10:21 | 38.09859 | 19.97734 | 15540 ft | 350 kts | 179° |
| 2026-04-18 10:21 | 38.07424 | 19.97910 | 15082 ft | 351 kts | 175° |
| 2026-04-18 10:22 | 38.04991 | 19.98271 | 14641 ft | 351 kts | 171° |
| 2026-04-18 10:22 | 38.02635 | 19.99051 | 14195 ft | 350 kts | 154° |
| 2026-04-18 10:22 | 38.00664 | 20.00811 | 13745 ft | 347 kts | 131° |
| 2026-04-18 10:22 | 37.99343 | 20.03324 | 13262 ft | 341 kts | 110° |
| 2026-04-18 10:23 | 37.98804 | 20.06204 | 12815 ft | 334 kts | 91° |
| 2026-04-18 10:23 | 37.98705 | 20.09118 | 12365 ft | 325 kts | 87° |
| 2026-04-18 10:23 | 37.98956 | 20.11885 | 11937 ft | 309 kts | 73° |
| 2026-04-18 10:23 | 37.99638 | 20.14386 | 11578 ft | 293 kts | 64° |
| 2026-04-18 10:24 | 38.00404 | 20.16717 | 11337 ft | 278 kts | 65° |
| 2026-04-18 10:24 | 38.01121 | 20.18929 | 11117 ft | 272 kts | 65° |
| 2026-04-18 10:24 | 38.01834 | 20.21139 | 10836 ft | 269 kts | 65° |
| 2026-04-18 10:24 | 38.02540 | 20.23331 | 10529 ft | 267 kts | 65° |
| 2026-04-18 10:25 | 38.03069 | 20.25584 | 10226 ft | 269 kts | 82° |
| 2026-04-18 10:25 | 38.02916 | 20.27947 | 9826 ft | 275 kts | 104° |
| 2026-04-18 10:25 | 38.01994 | 20.30106 | 9307 ft | 283 kts | 130° |
| 2026-04-18 10:25 | 38.00481 | 20.31711 | 8912 ft | 283 kts | 143° |
| 2026-04-18 10:26 | 37.98951 | 20.33272 | 8510 ft | 279 kts | 137° |
| 2026-04-18 10:26 | 37.97594 | 20.34958 | 8159 ft | 267 kts | 131° |
| 2026-04-18 10:26 | 37.96449 | 20.36723 | 7862 ft | 260 kts | 125° |
| 2026-04-18 10:26 | 37.95455 | 20.38635 | 7528 ft | 259 kts | 119° |
| 2026-04-18 10:27 | 37.94624 | 20.40658 | 7170 ft | 258 kts | 113° |
| 2026-04-18 10:27 | 37.93956 | 20.42761 | 6829 ft | 256 kts | 108° |
| 2026-04-18 10:27 | 37.93455 | 20.44922 | 6477 ft | 254 kts | 102° |
| 2026-04-18 10:27 | 37.93217 | 20.46347 | 6246 ft | 247 kts | 98° |
| 2026-04-18 10:28 | 37.92995 | 20.48465 | 5908 ft | 237 kts | 92° |
| 2026-04-18 10:28 | 37.92927 | 20.50514 | 5595 ft | 228 kts | 87° |
| 2026-04-18 10:28 | 37.92995 | 20.52480 | 5289 ft | 219 kts | 82° |
| 2026-04-18 10:28 | 37.93265 | 20.54928 | 4932 ft | 208 kts | 76° |
| 2026-04-18 10:29 | 37.93475 | 20.56122 | 4732 ft | 202 kts | 74° |
| 2026-04-18 10:29 | 37.93848 | 20.57778 | 4460 ft | 188 kts | 70° |
| 2026-04-18 10:29 | 37.94281 | 20.59271 | 4212 ft | 177 kts | 66° |
| 2026-04-18 10:29 | 37.94771 | 20.60646 | 3968 ft | 165 kts | 60° |
| 2026-04-18 10:30 | 37.95483 | 20.61695 | 3765 ft | 152 kts | 35° |
| 2026-04-18 10:30 | 37.96400 | 20.62254 | 3593 ft | 145 kts | 14° |
| 2026-04-18 10:30 | 37.97394 | 20.62331 | 3387 ft | 144 kts | 353° |
| 2026-04-18 10:30 | 37.98338 | 20.61922 | 3182 ft | 145 kts | 331° |
| 2026-04-18 10:31 | 37.99174 | 20.61193 | 2971 ft | 146 kts | 327° |
| 2026-04-18 10:31 | 38.00008 | 20.60457 | 2766 ft | 146 kts | 327° |
| 2026-04-18 10:31 | 38.00840 | 20.59723 | 2558 ft | 145 kts | 327° |
| 2026-04-18 10:31 | 38.01668 | 20.58992 | 2352 ft | 145 kts | 327° |
| 2026-04-18 10:32 | 38.02495 | 20.58263 | 2146 ft | 144 kts | 327° |
| 2026-04-18 10:32 | 38.03318 | 20.57535 | 1946 ft | 144 kts | 327° |
| 2026-04-18 10:32 | 38.04143 | 20.56807 | 1748 ft | 144 kts | 327° |
| 2026-04-18 10:32 | 38.04955 | 20.56090 | 1560 ft | 144 kts | 326° |
| 2026-04-18 10:33 | 38.05775 | 20.55365 | 1366 ft | 144 kts | 326° |
| 2026-04-18 10:33 | 38.06594 | 20.54641 | 1172 ft | 143 kts | 326° |
| 2026-04-18 10:33 | 38.07410 | 20.53924 | 996 ft | 142 kts | 326° |
| 2026-04-18 10:33 | 38.08222 | 20.53220 | 810 ft | 140 kts | 325° |
| 2026-04-18 10:34 | 38.09033 | 20.52541 | 691 ft | 140 kts | 327° |
| 2026-04-18 10:34 | 38.09849 | 20.51874 | 492 ft | 138 kts | 324° |
| 2026-04-18 10:34 | 38.10647 | 20.51195 | 264 ft | 137 kts | 326° |
| 2026-04-18 10:34 | 38.11437 | 20.50525 | 95 ft | 135 kts | 325° |
| 2026-04-18 10:35 | 38.12107 | 20.49962 | 71 ft | 81 kts | 327° |
| 2026-04-18 10:35 | 38.12358 | 20.49766 | 78 ft | 15 kts | 350° |
| 2026-04-18 10:35 | 38.12370 | 20.49730 | 74 ft | 3 kts | 176° |
| 2026-04-18 10:35 | 38.12309 | 20.49785 | 78 ft | 13 kts | 140° |
| 2026-04-18 10:36 | 38.12219 | 20.49866 | 77 ft | 20 kts | 146° |
| 2026-04-18 10:36 | 38.12094 | 20.49972 | 76 ft | 22 kts | 146° |
| 2026-04-18 10:36 | 38.11959 | 20.50087 | 70 ft | 25 kts | 147° |
| 2026-04-18 10:36 | 38.11889 | 20.50207 | 75 ft | 13 kts | 81° |
| 2026-04-18 10:37 | 38.11892 | 20.50279 | 81 ft | 6 kts | 108° |
| 2026-04-18 10:37 | 38.11878 | 20.50318 | 85 ft | 4 kts | 116° |
| 2026-04-18 10:37 | 38.11886 | 20.50374 | 86 ft | 7 kts | 56° |
| 2026-04-18 10:37 | 38.11905 | 20.50411 | 82 ft | 2 kts | 57° |
| 2026-04-18 10:38 | 38.11908 | 20.50416 | 82 ft | 0 kts | 57° |